Time;durP1;ratioP1;P1;durP2;ratioP2;P2;SDS_P1;SDS_P2;PMS_P1;PMS_P2;Temp;Humidity;BMP_temperature;BMP_pressure;BME280_temperature;BME280_humidity;BME280_pressure;Samples;Min_cycle;Max_cycle;Signal;HPM_P1;HPM_P2
2021/11/24 00:01:06;;;;;;;10.05;4.20;;;8.20;62.30;;;;;;5100558;28;20467;-56
2021/11/24 00:03:32;;;;;;;10.20;4.60;;;8.20;62.30;;;;;;5100623;28;20062;-56
2021/11/24 00:05:58;;;;;;;11.68;4.20;;;8.10;63.20;;;;;;5100465;28;20020;-56
2021/11/24 00:08:24;;;;;;;9.35;4.15;;;8.10;63.00;;;;;;5100252;28;20544;-57
2021/11/24 00:10:49;;;;;;;10.68;4.00;;;8.10;63.00;;;;;;5099164;28;20463;-57
2021/11/24 00:13:15;;;;;;;10.75;4.55;;;8.10;63.10;;;;;;5100105;28;20031;-60
2021/11/24 00:15:41;;;;;;;9.77;4.45;;;8.10;63.90;;;;;;5099986;28;20413;-57
2021/11/24 00:18:07;;;;;;;9.50;4.10;;;8.10;63.70;;;;;;5100356;28;20024;-57
2021/11/24 00:20:33;;;;;;;11.43;3.80;;;8.00;62.80;;;;;;5100258;28;20134;-59
2021/11/24 00:22:59;;;;;;;11.40;3.90;;;8.00;63.10;;;;;;5100221;28;20530;-57
2021/11/24 00:25:25;;;;;;;11.35;4.63;;;8.00;63.20;;;;;;5099683;28;20494;-58
2021/11/24 00:27:50;;;;;;;12.27;4.93;;;8.00;63.50;;;;;;5100259;28;20032;-56
2021/11/24 00:30:16;;;;;;;10.00;3.83;;;7.90;64.30;;;;;;5099978;28;20012;-54
2021/11/24 00:32:42;;;;;;;8.45;3.78;;;7.90;63.10;;;;;;5100362;28;20048;-55
2021/11/24 00:35:08;;;;;;;8.52;3.85;;;7.90;63.70;;;;;;5099696;28;20022;-56
2021/11/24 00:37:35;;;;;;;11.25;4.20;;;7.80;63.90;;;;;;5099636;28;20081;-61
2021/11/24 00:40:01;;;;;;;12.18;4.80;;;7.90;62.90;;;;;;5099814;28;20062;-57
2021/11/24 00:42:27;;;;;;;10.40;4.25;;;7.90;63.50;;;;;;5099843;28;20028;-56
2021/11/24 00:44:52;;;;;;;11.65;4.40;;;7.80;63.00;;;;;;5099782;28;20016;-56
2021/11/24 00:47:18;;;;;;;11.68;4.72;;;7.80;62.90;;;;;;5098132;28;20028;-54
2021/11/24 00:49:44;;;;;;;13.63;4.57;;;7.80;64.00;;;;;;5099716;28;20020;-57
2021/11/24 00:52:10;;;;;;;10.27;4.50;;;7.80;64.20;;;;;;5099586;28;20020;-53
2021/11/24 00:54:37;;;;;;;10.95;4.40;;;7.80;62.30;;;;;;5099638;28;20050;-55
2021/11/24 00:57:03;;;;;;;9.73;4.45;;;7.80;62.60;;;;;;5099336;28;20107;-55
2021/11/24 00:59:29;;;;;;;12.18;4.70;;;7.70;63.50;;;;;;5099721;28;20024;-56
2021/11/24 01:01:55;;;;;;;12.82;5.00;;;7.70;62.60;;;;;;5099242;28;20024;-53
2021/11/24 01:04:20;;;;;;;9.05;4.32;;;7.70;63.80;;;;;;5099174;28;20510;-54
2021/11/24 01:06:46;;;;;;;10.63;4.68;;;7.70;62.80;;;;;;5099075;28;20052;-55
2021/11/24 01:09:12;;;;;;;12.73;5.00;;;7.70;62.60;;;;;;5099311;28;20020;-54
2021/11/24 01:11:40;;;;;;;11.32;4.60;;;7.60;61.70;;;;;;5099050;28;20023;-56
2021/11/24 01:14:06;;;;;;;12.48;4.65;;;7.60;64.20;;;;;;5098954;28;20382;-57
2021/11/24 01:16:31;;;;;;;10.95;4.80;;;7.60;63.10;;;;;;5099343;28;20103;-56
2021/11/24 01:18:57;;;;;;;13.38;4.15;;;7.60;63.60;;;;;;5099237;28;20024;-56
2021/11/24 01:21:23;;;;;;;12.27;4.90;;;7.50;63.60;;;;;;5098847;28;20103;-62
2021/11/24 01:23:49;;;;;;;12.23;5.13;;;7.50;62.80;;;;;;5098768;28;20046;-56
2021/11/24 01:26:15;;;;;;;11.80;4.40;;;7.50;62.80;;;;;;5098454;28;20043;-55
2021/11/24 01:28:41;;;;;;;10.25;4.53;;;7.50;62.90;;;;;;5098915;28;20467;-56
2021/11/24 01:31:07;;;;;;;9.93;4.15;;;7.50;63.10;;;;;;5097245;28;20412;-54
2021/11/24 01:33:33;;;;;;;12.23;4.47;;;7.40;63.20;;;;;;5098643;28;20448;-55
2021/11/24 01:35:59;;;;;;;10.55;4.10;;;7.40;63.40;;;;;;5098601;28;20028;-57
2021/11/24 01:38:26;;;;;;;10.10;4.20;;;7.40;62.80;;;;;;5097170;28;20532;-55
2021/11/24 01:40:52;;;;;;;11.73;4.53;;;7.40;63.00;;;;;;5098240;28;20032;-54
2021/11/24 01:43:18;;;;;;;10.43;4.63;;;7.30;63.30;;;;;;5098584;28;20036;-55
2021/11/24 01:45:44;;;;;;;13.73;4.50;;;7.30;64.20;;;;;;5098552;28;20028;-52
2021/11/24 01:48:10;;;;;;;12.80;5.13;;;7.30;63.00;;;;;;5098567;28;20100;-54
2021/11/24 01:50:36;;;;;;;11.05;4.75;;;7.30;63.60;;;;;;5098509;28;20111;-56
2021/11/24 01:53:03;;;;;;;12.77;4.78;;;7.20;64.40;;;;;;5098266;28;20026;-54
2021/11/24 01:55:29;;;;;;;10.27;4.80;;;7.20;64.10;;;;;;5098170;28;20115;-53
2021/11/24 01:57:55;;;;;;;10.43;4.70;;;7.20;64.50;;;;;;5098205;28;20032;-57
2021/11/24 02:00:25;;;;;;;11.45;4.82;;;7.20;63.40;;;;;;5098024;28;20460;-56
2021/11/24 02:02:51;;;;;;;15.65;4.82;;;7.20;64.30;;;;;;5098529;28;20028;-56
2021/11/24 02:05:17;;;;;;;10.55;4.32;;;7.20;63.70;;;;;;5098593;28;20031;-56
2021/11/24 02:07:43;;;;;;;9.98;4.13;;;7.10;64.00;;;;;;5098187;28;20360;-54
2021/11/24 02:10:10;;;;;;;13.13;4.68;;;7.10;63.20;;;;;;5098349;28;20038;-52
2021/11/24 02:12:36;;;;;;;13.23;5.40;;;7.10;63.70;;;;;;5097855;28;20023;-55
2021/11/24 02:15:04;;;;;;;11.98;4.43;;;7.10;63.20;;;;;;5098157;28;20503;-53
2021/11/24 02:17:29;;;;;;;8.55;4.38;;;7.00;63.50;;;;;;5098022;28;20078;-54
2021/11/24 02:19:55;;;;;;;13.55;4.88;;;7.10;63.80;;;;;;5098112;28;20024;-56
2021/11/24 02:22:21;;;;;;;12.65;4.50;;;7.00;63.80;;;;;;5113448;28;20467;-54
2021/11/24 02:24:47;;;;;;;14.70;4.82;;;7.00;63.40;;;;;;5097561;28;20024;-55
2021/11/24 02:27:14;;;;;;;11.55;4.45;;;7.00;63.50;;;;;;5097553;28;20024;-56
2021/11/24 02:29:41;;;;;;;11.80;4.70;;;7.00;64.30;;;;;;5097774;28;20020;-56
2021/11/24 02:32:07;;;;;;;14.80;4.65;;;6.90;63.70;;;;;;5097600;28;20038;-53
2021/11/24 02:34:34;;;;;;;9.38;4.60;;;6.90;63.40;;;;;;5097729;28;20055;-55
2021/11/24 02:36:59;;;;;;;13.40;4.95;;;6.90;64.40;;;;;;5097552;28;20067;-55
2021/11/24 02:39:25;;;;;;;15.00;5.57;;;6.90;63.70;;;;;;5097730;28;20032;-56
2021/11/24 02:41:51;;;;;;;12.63;5.07;;;6.90;64.10;;;;;;5097745;28;20059;-56
2021/11/24 02:44:28;;;;;;;13.52;5.55;;;6.90;64.70;;;;;;5097671;28;20039;-52
2021/11/24 02:47:04;;;;;;;13.73;5.43;;;6.90;64.80;;;;;;5097495;28;20020;-58
2021/11/24 02:49:36;;;;;;;14.00;6.55;;;6.80;64.30;;;;;;5097252;28;20028;-54
2021/11/24 02:52:02;;;;;;;19.58;5.85;;;6.80;64.00;;;;;;5096910;28;20027;-53
2021/11/24 02:54:28;;;;;;;14.32;5.65;;;6.80;64.40;;;;;;5097455;28;20023;-58
2021/11/24 02:56:54;;;;;;;10.38;4.70;;;6.80;64.10;;;;;;5097389;28;20020;-50
2021/11/24 02:59:21;;;;;;;11.57;5.55;;;6.80;64.20;;;;;;5097432;28;20479;-52
2021/11/24 03:01:47;;;;;;;13.27;4.78;;;6.80;64.30;;;;;;5097386;28;20017;-54
2021/11/24 03:04:12;;;;;;;11.15;5.40;;;6.80;63.70;;;;;;5097380;28;20405;-60
2021/11/24 03:06:39;;;;;;;12.82;5.43;;;6.70;64.60;;;;;;5097457;28;20027;-56
2021/11/24 03:09:05;;;;;;;12.15;5.00;;;6.70;64.30;;;;;;5097274;28;20091;-54
2021/11/24 03:11:31;;;;;;;10.77;4.63;;;6.70;64.40;;;;;;5097294;28;20020;-54
2021/11/24 03:13:57;;;;;;;11.68;5.13;;;6.70;64.20;;;;;;5097531;28;20035;-51
2021/11/24 03:16:22;;;;;;;12.15;4.95;;;6.70;63.50;;;;;;5097044;28;20416;-56
2021/11/24 03:18:48;;;;;;;9.75;4.32;;;6.70;63.80;;;;;;5097200;28;20020;-54
2021/11/24 03:21:14;;;;;;;12.68;4.47;;;6.70;64.50;;;;;;5097221;28;20055;-49
2021/11/24 03:23:40;;;;;;;9.07;4.10;;;6.60;63.80;;;;;;5097194;28;20039;-52
2021/11/24 03:26:06;;;;;;;10.20;4.70;;;6.60;63.40;;;;;;5096917;28;20067;-52
2021/11/24 03:28:31;;;;;;;11.98;4.68;;;6.50;64.10;;;;;;5097121;28;20032;-54
2021/11/24 03:30:57;;;;;;;13.25;3.92;;;6.50;64.10;;;;;;5097279;28;20012;-52
2021/11/24 03:33:23;;;;;;;11.18;4.38;;;6.50;63.90;;;;;;5097549;28;20050;-51
2021/11/24 03:35:49;;;;;;;10.93;4.28;;;6.40;64.60;;;;;;5097127;28;20020;-54
2021/11/24 03:38:14;;;;;;;10.25;4.57;;;6.40;63.40;;;;;;5097119;28;20032;-56
2021/11/24 03:40:40;;;;;;;12.02;4.32;;;6.40;64.30;;;;;;5097049;28;20455;-54
2021/11/24 03:43:06;;;;;;;13.80;5.22;;;6.40;64.60;;;;;;5097222;28;20032;-50
2021/11/24 03:45:35;;;;;;;11.63;4.93;;;6.40;64.00;;;;;;5099193;28;20020;-52
2021/11/24 03:48:03;;;;;;;12.63;4.97;;;6.40;63.60;;;;;;5100628;28;20028;-55
2021/11/24 03:50:29;;;;;;;12.88;5.28;;;6.40;64.40;;;;;;5099280;28;20016;-51
2021/11/24 03:52:55;;;;;;;11.25;4.05;;;6.40;64.20;;;;;;5100729;28;20031;-55
2021/11/24 03:55:21;;;;;;;11.30;4.85;;;6.30;63.70;;;;;;5100682;28;20028;-54
2021/11/24 03:57:48;;;;;;;12.32;4.90;;;6.30;63.90;;;;;;5100552;28;20024;-56
2021/11/24 04:00:21;;;;;;;13.98;4.60;;;6.30;64.30;;;;;;5100624;28;20421;-55
2021/11/24 04:02:47;;;;;;;12.23;5.60;;;6.20;64.10;;;;;;5100442;28;20398;-53
2021/11/24 04:05:13;;;;;;;15.30;4.78;;;6.20;64.10;;;;;;5100470;28;20174;-51
2021/11/24 04:07:39;;;;;;;14.38;6.00;;;6.20;64.00;;;;;;5100730;28;20024;-56
2021/11/24 04:10:07;;;;;;;14.60;5.28;;;6.20;65.00;;;;;;5100175;28;20020;-55
2021/11/24 04:12:33;;;;;;;11.52;5.40;;;6.20;64.20;;;;;;5100618;28;20023;-52
2021/11/24 04:14:59;;;;;;;16.15;5.90;;;6.20;64.60;;;;;;5100350;28;20027;-55
2021/11/24 04:17:25;;;;;;;11.43;4.50;;;6.20;63.10;;;;;;5100166;28;20101;-53
2021/11/24 04:19:50;;;;;;;10.90;5.20;;;6.20;63.20;;;;;;5100340;28;20032;-51
2021/11/24 04:22:16;;;;;;;11.32;4.50;;;6.20;64.60;;;;;;5099994;28;20024;-52
2021/11/24 04:24:42;;;;;;;14.35;5.20;;;6.10;64.50;;;;;;5099838;28;20046;-55
2021/11/24 04:27:09;;;;;;;13.95;5.65;;;6.10;64.40;;;;;;5099696;28;20055;-53
2021/11/24 04:29:34;;;;;;;14.32;5.93;;;6.10;64.00;;;;;;5100051;28;20023;-54
2021/11/24 04:32:01;;;;;;;18.63;6.72;;;6.10;64.50;;;;;;5099886;28;20051;-51
2021/11/24 04:34:27;;;;;;;13.20;5.68;;;6.00;64.90;;;;;;5099773;28;20485;-51
2021/11/24 04:36:54;;;;;;;11.98;4.75;;;6.00;64.10;;;;;;5099764;28;20051;-56
2021/11/24 04:39:20;;;;;;;12.25;5.07;;;6.00;64.10;;;;;;5098234;28;20020;-53
2021/11/24 04:41:45;;;;;;;12.93;4.88;;;6.00;64.00;;;;;;5099863;28;20181;-53
2021/11/24 04:44:11;;;;;;;12.35;4.80;;;5.90;63.70;;;;;;5099752;28;20491;-54
2021/11/24 04:46:37;;;;;;;11.18;4.95;;;5.90;64.40;;;;;;5099891;28;20035;-54
2021/11/24 04:49:03;;;;;;;12.10;5.28;;;5.90;64.90;;;;;;5099521;28;20016;-54
2021/11/24 04:51:29;;;;;;;9.82;4.68;;;5.90;63.70;;;;;;5099474;28;20024;-52
2021/11/24 04:53:55;;;;;;;17.50;5.55;;;5.80;64.20;;;;;;5099505;28;20023;-54
2021/11/24 04:56:20;;;;;;;14.55;5.72;;;5.80;64.20;;;;;;5099179;28;20032;-54
2021/11/24 04:58:55;;;;;;;12.45;4.65;;;5.80;64.80;;;;;;5099651;28;20024;-50
2021/11/24 05:01:21;;;;;;;10.55;5.70;;;5.80;63.60;;;;;;5099261;28;20024;-54
2021/11/24 05:03:47;;;;;;;11.80;4.90;;;5.80;64.20;;;;;;5099198;28;20027;-50
2021/11/24 05:06:14;;;;;;;13.98;6.05;;;5.80;64.30;;;;;;5099648;28;20097;-52
2021/11/24 05:08:40;;;;;;;11.27;5.28;;;5.80;64.70;;;;;;5099556;28;20344;-56
2021/11/24 05:11:09;;;;;;;14.73;6.28;;;5.80;64.00;;;;;;5098943;28;20053;-54
2021/11/24 05:13:37;;;;;;;15.20;5.82;;;5.80;64.50;;;;;;5099294;28;20026;-51
2021/11/24 05:16:04;;;;;;;13.20;5.95;;;5.80;64.30;;;;;;5098954;28;20032;-54
2021/11/24 05:18:36;;;;;;;11.50;5.30;;;5.80;64.90;;;;;;5098967;28;20035;-51
2021/11/24 05:21:15;;;;;;;11.27;6.00;;;5.80;64.30;;;;;;5098855;28;20052;-54
2021/11/24 05:23:43;;;;;;;16.55;6.55;;;5.70;64.80;;;;;;5098656;28;20024;-50
2021/11/24 05:26:10;;;;;;;14.93;6.40;;;5.80;65.10;;;;;;5098516;28;20042;-53
2021/11/24 05:28:37;;;;;;;13.68;6.63;;;5.70;66.00;;;;;;5098957;28;20467;-54
2021/11/24 05:31:03;;;;;;;13.02;6.65;;;5.80;64.60;;;;;;5098947;28;20024;-51
2021/11/24 05:33:29;;;;;;;15.70;6.88;;;5.70;64.70;;;;;;5098839;28;20031;-55
2021/11/24 05:35:55;;;;;;;15.00;7.43;;;5.70;64.40;;;;;;5099021;28;20027;-52
2021/11/24 05:38:21;;;;;;;14.18;6.55;;;5.70;65.40;;;;;;5098482;28;20024;-53
2021/11/24 05:40:46;;;;;;;18.95;7.00;;;5.70;65.10;;;;;;5098548;28;20027;-53
2021/11/24 05:43:14;;;;;;;15.23;6.40;;;5.70;63.90;;;;;;5098458;28;20490;-51
2021/11/24 05:48:20;;;;;;;14.45;6.22;;;5.70;65.40;;;;;;5097807;28;20024;-54
2021/11/24 05:50:48;;;;;;;16.90;7.20;;;5.70;64.40;;;;;;5098336;28;20028;-53
2021/11/24 05:53:16;;;;;;;16.10;6.90;;;5.70;65.20;;;;;;5098282;28;20008;-55
2021/11/24 05:55:42;;;;;;;15.07;6.85;;;5.70;64.70;;;;;;5098096;28;20039;-53
2021/11/24 05:58:12;;;;;;;14.70;7.22;;;5.60;65.90;;;;;;5098255;28;20020;-52
2021/11/24 06:00:39;;;;;;;15.90;6.57;;;5.70;65.10;;;;;;5095744;28;20031;-51
2021/11/24 06:03:05;;;;;;;16.42;7.95;;;5.70;64.30;;;;;;5097960;28;20091;-52
2021/11/24 06:05:30;;;;;;;12.80;6.72;;;5.60;64.50;;;;;;5097189;28;20504;-54
2021/11/24 06:07:56;;;;;;;14.93;6.93;;;5.60;64.80;;;;;;5097521;28;20020;-50
2021/11/24 06:10:23;;;;;;;14.68;6.47;;;5.60;64.40;;;;;;5097983;28;20097;-54
2021/11/24 06:12:49;;;;;;;15.13;6.85;;;5.50;64.70;;;;;;5094425;28;20401;-52
2021/11/24 06:15:16;;;;;;;15.82;7.25;;;5.50;64.90;;;;;;5097829;28;20024;-50
2021/11/24 06:17:46;;;;;;;14.85;7.40;;;5.50;64.80;;;;;;5093756;28;20555;-52
2021/11/24 06:20:13;;;;;;;16.50;7.75;;;5.50;65.10;;;;;;5095237;28;20479;-49
2021/11/24 06:22:40;;;;;;;16.35;7.72;;;5.50;64.10;;;;;;5095890;28;20499;-50
2021/11/24 06:25:08;;;;;;;15.95;6.68;;;5.50;64.30;;;;;;5094578;28;20044;-53
2021/11/24 06:27:34;;;;;;;17.42;7.28;;;5.50;64.40;;;;;;5093257;28;20035;-62
2021/11/24 06:30:02;;;;;;;16.35;7.60;;;5.50;63.70;;;;;;5095236;28;20071;-58
2021/11/24 06:32:28;;;;;;;16.95;7.85;;;5.50;64.60;;;;;;5097889;28;20020;-52
2021/11/24 06:34:54;;;;;;;16.52;7.07;;;5.40;64.30;;;;;;5096789;28;20028;-52
2021/11/24 06:37:19;;;;;;;15.45;6.80;;;5.40;64.70;;;;;;5091146;28;20028;-49
2021/11/24 06:39:45;;;;;;;14.48;7.60;;;5.40;64.90;;;;;;5097368;28;20032;-56
2021/11/24 06:42:11;;;;;;;14.25;6.78;;;5.40;65.10;;;;;;5094397;28;20051;-48
2021/11/24 06:44:37;;;;;;;17.10;7.70;;;5.30;65.80;;;;;;5096744;28;20479;-52
2021/11/24 06:47:03;;;;;;;17.10;6.93;;;5.40;64.90;;;;;;5097165;28;20069;-48
2021/11/24 06:49:29;;;;;;;13.38;7.38;;;5.40;64.60;;;;;;5096199;28;20085;-50
2021/11/24 06:51:54;;;;;;;14.05;7.45;;;5.40;64.50;;;;;;5095189;28;20454;-51
2021/11/24 06:54:20;;;;;;;15.93;7.72;;;5.40;63.80;;;;;;5095615;28;20032;-51
2021/11/24 06:56:48;;;;;;;14.85;7.63;;;5.40;65.10;;;;;;5097029;28;20054;-50
2021/11/24 06:59:14;;;;;;;14.82;7.70;;;5.30;64.40;;;;;;5095796;28;20020;-53
2021/11/24 07:01:40;;;;;;;18.00;7.45;;;5.30;65.00;;;;;;5096367;28;20056;-49
2021/11/24 07:04:07;;;;;;;19.52;7.50;;;5.30;64.30;;;;;;5097168;28;20031;-51
2021/11/24 07:06:33;;;;;;;21.13;8.05;;;5.30;64.20;;;;;;5097104;28;20024;-48
2021/11/24 07:08:59;;;;;;;15.77;7.40;;;5.30;64.60;;;;;;5097352;28;20024;-50
2021/11/24 07:11:30;;;;;;;18.60;8.55;;;5.30;64.20;;;;;;5097351;28;20027;-49
2021/11/24 07:13:56;;;;;;;15.48;7.32;;;5.30;64.00;;;;;;5096901;28;20028;-50
2021/11/24 07:16:22;;;;;;;18.63;8.65;;;5.30;63.70;;;;;;5097349;28;20020;-49
2021/11/24 07:18:47;;;;;;;20.38;7.97;;;5.30;63.60;;;;;;5097882;28;20039;-48
2021/11/24 07:21:13;;;;;;;17.33;8.73;;;5.20;64.30;;;;;;5101169;28;20100;-48
2021/11/24 07:23:39;;;;;;;22.17;9.77;;;5.20;64.20;;;;;;5101019;28;20067;-49
2021/11/24 07:26:05;;;;;;;18.10;9.05;;;5.10;64.10;;;;;;5100941;28;20040;-50
2021/11/24 07:28:31;;;;;;;23.00;11.85;;;5.10;64.50;;;;;;5101371;28;20031;-50
2021/11/24 07:30:57;;;;;;;23.05;10.95;;;5.10;63.50;;;;;;5101315;28;20099;-48
2021/11/24 07:33:23;;;;;;;23.10;10.20;;;5.10;64.20;;;;;;5101192;28;20024;-49
2021/11/24 07:35:49;;;;;;;21.08;10.00;;;5.10;64.90;;;;;;5100633;28;20028;-52
2021/11/24 07:38:15;;;;;;;20.05;10.55;;;5.10;64.10;;;;;;5100849;28;20024;-49
2021/11/24 07:40:41;;;;;;;18.23;8.65;;;5.10;63.90;;;;;;5100875;28;20492;-51
2021/11/24 07:43:08;;;;;;;22.73;9.43;;;5.10;63.90;;;;;;5100776;28;20102;-49
2021/11/24 07:45:34;;;;;;;22.52;9.75;;;5.10;63.60;;;;;;5100815;28;21293;-50
2021/11/24 07:48:00;;;;;;;19.90;10.63;;;5.10;64.60;;;;;;5100788;28;20024;-49
2021/11/24 07:50:26;;;;;;;18.52;9.35;;;5.10;64.80;;;;;;5100495;28;20016;-53
2021/11/24 07:52:52;;;;;;;19.95;10.38;;;5.10;64.80;;;;;;5100492;28;20103;-49
2021/11/24 07:55:18;;;;;;;20.58;9.60;;;5.20;64.30;;;;;;5100401;28;20024;-51
2021/11/24 07:57:44;;;;;;;18.10;8.90;;;5.10;64.40;;;;;;5100427;28;20103;-50
2021/11/24 08:00:12;;;;;;;18.08;9.05;;;5.20;64.60;;;;;;5100583;28;20043;-49
2021/11/24 08:02:40;;;;;;;20.33;9.25;;;5.20;64.00;;;;;;5100176;28;20085;-49
2021/11/24 08:05:06;;;;;;;22.52;10.63;;;5.20;63.60;;;;;;5100190;28;20363;-50
2021/11/24 08:07:33;;;;;;;23.63;11.43;;;5.20;64.20;;;;;;5099719;28;20533;-50
2021/11/24 08:09:59;;;;;;;20.67;9.40;;;5.20;64.40;;;;;;5098295;28;20043;-49
2021/11/24 08:12:25;;;;;;;32.40;14.45;;;5.20;63.80;;;;;;5099492;28;20020;-51
2021/11/24 08:14:52;;;;;;;36.17;18.75;;;5.20;65.00;;;;;;5099316;28;20021;-49
2021/11/24 08:17:18;;;;;;;23.77;11.50;;;5.20;65.00;;;;;;5099972;28;20123;-49
2021/11/24 08:19:44;;;;;;;18.52;9.48;;;5.30;64.30;;;;;;5100143;28;20028;-50
2021/11/24 08:22:10;;;;;;;18.40;10.10;;;5.30;63.50;;;;;;5099769;28;20065;-50
2021/11/24 08:24:36;;;;;;;17.95;10.55;;;5.30;64.80;;;;;;5099930;28;20081;-51
2021/11/24 08:27:02;;;;;;;23.23;10.90;;;5.40;64.60;;;;;;5099874;28;20031;-51
2021/11/24 08:29:29;;;;;;;20.63;10.82;;;5.50;65.30;;;;;;5100066;28;20027;-49
2021/11/24 08:31:55;;;;;;;22.08;10.13;;;5.80;65.00;;;;;;5098082;28;20024;-51
2021/11/24 08:34:21;;;;;;;22.30;10.60;;;6.20;64.00;;;;;;5100198;28;20027;-50
2021/11/24 08:36:48;;;;;;;20.30;11.35;;;6.50;64.80;;;;;;5099726;28;20047;-51
2021/11/24 08:39:14;;;;;;;20.35;10.88;;;6.80;64.00;;;;;;5099694;28;20052;-49
2021/11/24 08:41:40;;;;;;;18.42;9.63;;;7.20;64.50;;;;;;5099583;28;20055;-51
2021/11/24 08:44:05;;;;;;;17.40;9.40;;;7.70;64.50;;;;;;5099758;28;20024;-52
2021/11/24 08:46:31;;;;;;;27.33;11.90;;;8.40;64.00;;;;;;5099442;28;20035;-51
2021/11/24 08:48:57;;;;;;;20.55;9.23;;;8.60;63.10;;;;;;5099482;28;20402;-50
2021/11/24 08:51:23;;;;;;;21.63;9.57;;;8.70;62.80;;;;;;5099500;28;20050;-55
2021/11/24 08:53:49;;;;;;;20.20;10.50;;;9.00;63.30;;;;;;5099589;28;20012;-53
2021/11/24 08:56:15;;;;;;;23.95;10.95;;;9.30;62.70;;;;;;5100005;28;20032;-51
2021/11/24 08:58:40;;;;;;;21.83;10.68;;;9.40;62.10;;;;;;5099330;28;20487;-55
2021/11/24 09:01:07;;;;;;;21.25;10.18;;;9.30;62.60;;;;;;5099404;28;20039;-57
2021/11/24 09:03:33;;;;;;;20.77;11.27;;;9.30;62.40;;;;;;5099378;28;20020;-57
2021/11/24 09:05:59;;;;;;;19.20;10.32;;;9.10;62.50;;;;;;5099330;28;20046;-57
2021/11/24 09:08:25;;;;;;;23.65;11.70;;;9.00;63.10;;;;;;5099391;28;20028;-57
2021/11/24 09:10:52;;;;;;;20.98;10.82;;;9.00;63.20;;;;;;5098978;28;20084;-57
2021/11/24 09:13:18;;;;;;;22.50;11.63;;;9.00;63.20;;;;;;5097369;28;20030;-56
2021/11/24 09:15:45;;;;;;;21.50;11.38;;;9.10;63.00;;;;;;5099073;28;20028;-55
2021/11/24 09:18:11;;;;;;;25.42;13.50;;;9.20;63.30;;;;;;5099188;28;20349;-55
2021/11/24 09:20:37;;;;;;;23.52;11.35;;;9.20;63.90;;;;;;5098669;28;20035;-56
2021/11/24 09:23:03;;;;;;;25.05;13.43;;;9.60;63.90;;;;;;5098891;28;20028;-53
2021/11/24 09:25:37;;;;;;;24.75;13.43;;;9.90;63.30;;;;;;5098598;28;20065;-52
2021/11/24 09:28:12;;;;;;;23.42;12.00;;;10.10;63.10;;;;;;5098793;28;20024;-57
2021/11/24 09:30:39;;;;;;;24.45;11.63;;;10.30;62.80;;;;;;5098753;28;20088;-64
2021/11/24 09:33:05;;;;;;;26.70;13.07;;;10.50;62.70;;;;;;5098645;28;20012;-64
2021/11/24 09:35:32;;;;;;;27.95;12.32;;;10.70;62.60;;;;;;5098811;28;20074;-62
2021/11/24 09:37:58;;;;;;;28.98;14.07;;;10.80;62.30;;;;;;5098517;28;20039;-62
2021/11/24 09:40:24;;;;;;;23.23;11.15;;;10.80;62.00;;;;;;5098876;28;20116;-63
2021/11/24 09:42:56;;;;;;;22.67;11.75;;;10.70;62.40;;;;;;5097072;28;20017;-62
2021/11/24 09:45:22;;;;;;;26.38;12.30;;;10.90;62.50;;;;;;5097756;28;20031;-62
2021/11/24 09:47:48;;;;;;;22.77;11.55;;;11.20;62.30;;;;;;5098266;28;20092;-62
2021/11/24 09:50:17;;;;;;;24.15;11.70;;;11.40;62.20;;;;;;5098345;28;20024;-62
2021/11/24 09:52:46;;;;;;;23.15;11.60;;;11.70;61.90;;;;;;5098440;28;20087;-62
2021/11/24 09:55:12;;;;;;;24.23;11.85;;;12.20;61.50;;;;;;5098357;28;20028;-63
2021/11/24 09:57:38;;;;;;;23.35;11.88;;;12.80;61.50;;;;;;5098267;28;20021;-62
2021/11/24 10:00:06;;;;;;;19.02;11.13;;;13.40;61.00;;;;;;5098163;28;20447;-63
2021/11/24 10:02:31;;;;;;;22.23;11.02;;;14.10;60.20;;;;;;5098479;28;20510;-62
2021/11/24 10:04:58;;;;;;;20.08;10.55;;;15.00;57.70;;;;;;5098114;28;20054;-62
2021/11/24 10:07:24;;;;;;;22.27;11.25;;;15.70;56.10;;;;;;5098151;28;20050;-62
2021/11/24 10:09:50;;;;;;;21.45;10.15;;;16.00;54.80;;;;;;5098176;28;20032;-62
2021/11/24 10:12:16;;;;;;;19.73;10.32;;;16.20;54.30;;;;;;5098013;28;20070;-63
2021/11/24 10:14:44;;;;;;;21.35;10.43;;;16.40;53.70;;;;;;5098162;28;20048;-63
2021/11/24 10:17:13;;;;;;;19.83;10.57;;;16.80;54.40;;;;;;5098098;28;20030;-63
2021/11/24 10:19:39;;;;;;;16.75;10.15;;;17.10;53.00;;;;;;5097878;28;20032;-63
2021/11/24 10:22:07;;;;;;;19.15;10.82;;;17.70;52.10;;;;;;5097979;28;20035;-63
2021/11/24 10:24:41;;;;;;;18.65;10.30;;;18.50;50.70;;;;;;5097994;28;20024;-63
2021/11/24 10:27:12;;;;;;;19.38;10.88;;;19.40;50.90;;;;;;5096334;28;20051;-63
2021/11/24 10:29:40;;;;;;;21.55;10.60;;;20.10;47.30;;;;;;5097745;28;20103;-63
2021/11/24 10:32:11;;;;;;;19.42;10.02;;;20.70;44.60;;;;;;5097595;28;20463;-63
2021/11/24 10:34:39;;;;;;;16.83;10.30;;;20.80;44.40;;;;;;5097734;28;20034;-63
2021/11/24 10:37:11;;;;;;;17.63;10.05;;;21.20;45.20;;;;;;5097968;28;20039;-63
2021/11/24 10:39:56;;;;;;;15.20;9.25;;;21.70;45.10;;;;;;5097483;28;20023;-63
2021/11/24 10:42:25;;;;;;;16.48;9.10;;;22.30;41.50;;;;;;5097653;28;20095;-64
2021/11/24 10:44:57;;;;;;;16.80;9.30;;;22.70;40.00;;;;;;5097307;28;20020;-64
2021/11/24 10:47:26;;;;;;;17.83;9.18;;;23.10;40.70;;;;;;5097558;28;20024;-64
2021/11/24 10:49:55;;;;;;;13.45;8.68;;;23.70;39.50;;;;;;5097612;28;20533;-64
2021/11/24 10:52:31;;;;;;;17.75;9.45;;;23.70;36.80;;;;;;5097356;28;20024;-62
2021/11/24 10:54:58;;;;;;;18.30;8.98;;;23.90;39.40;;;;;;5100364;28;20482;-63
2021/11/24 10:57:25;;;;;;;15.18;8.75;;;24.10;38.30;;;;;;5101963;28;20020;-62
2021/11/24 10:59:51;;;;;;;16.45;9.38;;;24.10;36.80;;;;;;5101418;28;20042;-62
2021/11/24 11:02:21;;;;;;;20.85;9.85;;;24.00;37.70;;;;;;5101938;28;20480;-62
2021/11/24 11:04:59;;;;;;;13.90;7.55;;;24.20;38.60;;;;;;5101658;28;20145;-62
2021/11/24 11:07:26;;;;;;;14.57;8.82;;;24.20;37.40;;;;;;5101034;28;20024;-62
2021/11/24 11:10:04;;;;;;;13.93;8.40;;;24.50;34.90;;;;;;5101010;28;20028;-63
2021/11/24 11:12:31;;;;;;;16.42;9.00;;;24.60;35.50;;;;;;5101272;28;20028;-62
2021/11/24 11:15:16;;;;;;;14.48;9.00;;;24.80;36.50;;;;;;5101478;28;20050;-62
2021/11/24 11:17:50;;;;;;;14.82;9.52;;;25.20;33.20;;;;;;5101466;28;20479;-62
2021/11/24 11:20:16;;;;;;;18.17;9.15;;;25.40;36.20;;;;;;5101494;28;20032;-62
2021/11/24 11:22:42;;;;;;;15.10;8.68;;;25.60;35.80;;;;;;5101156;28;20037;-62
2021/11/24 11:25:09;;;;;;;13.93;8.43;;;25.80;34.50;;;;;;5101038;28;20060;-62
2021/11/24 11:27:34;;;;;;;14.48;8.40;;;25.80;35.70;;;;;;5101067;28;20540;-62
2021/11/24 11:30:00;;;;;;;13.38;8.25;;;26.10;33.20;;;;;;5101291;28;20046;-62
2021/11/24 11:32:28;;;;;;;13.23;8.27;;;26.10;34.10;;;;;;5100876;28;20056;-62
2021/11/24 11:34:54;;;;;;;12.90;7.85;;;26.40;35.60;;;;;;5100858;28;20030;-62
2021/11/24 11:37:20;;;;;;;14.27;7.05;;;26.70;32.80;;;;;;5100878;28;20032;-62
2021/11/24 11:39:46;;;;;;;12.45;7.65;;;26.90;32.30;;;;;;5101005;28;20067;-62
2021/11/24 11:42:15;;;;;;;14.40;7.93;;;27.00;31.10;;;;;;5100754;28;20499;-63
2021/11/24 11:44:41;;;;;;;15.52;8.10;;;27.00;34.20;;;;;;5101076;28;20024;-63
2021/11/24 11:47:07;;;;;;;14.85;8.23;;;27.30;31.20;;;;;;5100512;28;20028;-63
2021/11/24 11:49:36;;;;;;;13.50;8.13;;;27.30;30.50;;;;;;5100800;28;20057;-63
2021/11/24 11:52:08;;;;;;;16.30;8.75;;;27.00;31.00;;;;;;5100595;28;20507;-63
2021/11/24 11:54:33;;;;;;;15.05;8.52;;;26.90;30.60;;;;;;5101250;28;20375;-62
2021/11/24 11:57:03;;;;;;;15.93;8.63;;;26.90;32.30;;;;;;5100551;28;20038;-63
2021/11/24 11:59:33;;;;;;;12.65;8.48;;;26.80;31.60;;;;;;5100634;28;20028;-63
2021/11/24 12:02:05;;;;;;;15.90;8.05;;;26.70;30.30;;;;;;5100415;28;20406;-63
2021/11/24 12:04:47;;;;;;;16.10;7.97;;;27.20;30.10;;;;;;5100446;28;20028;-63
2021/11/24 12:07:22;;;;;;;12.85;7.88;;;27.50;31.60;;;;;;5098151;28;20063;-63
2021/11/24 12:09:57;;;;;;;14.15;7.55;;;27.90;31.30;;;;;;5100267;28;20016;-63
2021/11/24 12:12:26;;;;;;;13.38;7.80;;;27.90;31.80;;;;;;5100422;28;20442;-64
2021/11/24 12:15:00;;;;;;;13.95;8.13;;;27.90;31.10;;;;;;5100082;28;20020;-63
2021/11/24 12:17:30;;;;;;;12.88;8.02;;;27.90;29.10;;;;;;5100319;28;20054;-63
2021/11/24 12:20:20;;;;;;;13.82;8.73;;;27.50;29.50;;;;;;5100173;28;20024;-63
2021/11/24 12:22:48;;;;;;;11.88;7.50;;;27.50;29.40;;;;;;5099678;28;20032;-62
2021/11/24 12:25:20;;;;;;;15.88;8.38;;;27.40;29.80;;;;;;5099566;28;20043;-63
2021/11/24 12:30:50;;;;;;;56.35;26.90;;;27.50;28.60;;;;;;5099633;28;20546;-63
2021/11/24 12:33:21;;;;;;;19.45;10.15;;;27.90;29.40;;;;;;5099853;28;20020;-62
2021/11/24 12:35:49;;;;;;;15.93;9.18;;;28.40;29.20;;;;;;5099943;28;20032;-62
2021/11/24 12:38:17;;;;;;;159.27;50.58;;;28.20;29.50;;;;;;5099673;28;20103;-62
2021/11/24 12:40:45;;;;;;;16.00;9.13;;;28.30;27.60;;;;;;5099888;28;20024;-62
2021/11/24 12:43:16;;;;;;;19.70;11.02;;;28.30;28.60;;;;;;5099723;28;20072;-62
2021/11/24 12:46:00;;;;;;;97.53;38.20;;;28.20;27.80;;;;;;5099492;28;20028;-62
2021/11/24 12:48:47;;;;;;;22.85;12.10;;;28.10;27.40;;;;;;5099664;28;20383;-62